Time;durP1;ratioP1;P1;durP2;ratioP2;P2;SDS_P1;SDS_P2;PMS_P1;PMS_P2;Temp;Humidity;BMP_temperature;BMP_pressure;BME280_temperature;BME280_humidity;BME280_pressure;Samples;Min_cycle;Max_cycle;Signal;HPM_P1;HPM_P2
2022/11/26 00:00:41;;;;;;;31.95;19.45;;;7.40;99.90;;;;;;2056672;28;20041;-68
2022/11/26 00:01:52;;;;;;;33.50;20.35;;;7.40;99.90;;;;;;2048716;28;20465;-68
2022/11/26 00:02:58;;;;;;;29.55;18.55;;;7.40;99.90;;;;;;2034437;29;20131;-69
2022/11/26 00:04:05;;;;;;;30.75;20.20;;;7.30;99.90;;;;;;2051164;28;20216;-69
2022/11/26 00:05:16;;;;;;;34.97;20.25;;;7.30;99.90;;;;;;2048996;28;20039;-68
2022/11/26 00:06:28;;;;;;;31.52;19.80;;;7.30;99.90;;;;;;2044565;28;20034;-68
2022/11/26 00:07:31;;;;;;;35.00;20.13;;;7.30;99.90;;;;;;2041666;29;20214;-68
2022/11/26 00:08:34;;;;;;;31.20;20.15;;;7.30;99.90;;;;;;2042597;29;20074;-69
2022/11/26 00:09:38;;;;;;;31.85;20.45;;;7.30;99.90;;;;;;2051557;28;20035;-68
2022/11/26 00:10:44;;;;;;;35.42;20.40;;;7.30;99.90;;;;;;2058430;28;20038;-67
2022/11/26 00:11:45;;;;;;;32.45;20.52;;;7.30;99.90;;;;;;2058110;28;20027;-66
2022/11/26 00:12:47;;;;;;;32.97;19.52;;;7.30;99.90;;;;;;2050262;28;20033;-67
2022/11/26 00:13:48;;;;;;;28.00;18.85;;;7.30;99.90;;;;;;2049720;28;20031;-66
2022/11/26 00:14:50;;;;;;;32.10;19.88;;;7.30;99.90;;;;;;2057763;28;20046;-66
2022/11/26 00:15:53;;;;;;;28.67;18.98;;;7.30;99.90;;;;;;2058306;28;20645;-68
2022/11/26 00:16:54;;;;;;;33.30;19.08;;;7.30;99.90;;;;;;2057833;28;20073;-67
2022/11/26 00:17:58;;;;;;;28.50;18.63;;;7.30;99.90;;;;;;2057976;28;20171;-67
2022/11/26 00:18:58;;;;;;;29.52;18.08;;;7.30;99.90;;;;;;2057491;28;20106;-67
2022/11/26 00:20:00;;;;;;;34.63;19.95;;;7.30;99.90;;;;;;2049471;28;20037;-67
2022/11/26 00:21:01;;;;;;;32.35;20.33;;;7.30;99.90;;;;;;2057340;28;20544;-68
2022/11/26 00:22:01;;;;;;;28.30;18.65;;;7.30;99.90;;;;;;2057978;28;20019;-69
2022/11/26 00:23:03;;;;;;;28.63;18.90;;;7.30;99.90;;;;;;2058999;28;20074;-68
2022/11/26 00:24:05;;;;;;;29.02;18.75;;;7.30;99.90;;;;;;2056980;28;20121;-68
2022/11/26 00:25:13;;;;;;;33.13;19.88;;;7.30;99.90;;;;;;2056222;28;20118;-69
2022/11/26 00:26:17;;;;;;;34.20;19.00;;;7.30;99.90;;;;;;2056763;28;20049;-69
2022/11/26 00:27:18;;;;;;;32.40;19.92;;;7.30;99.90;;;;;;2056848;28;20019;-69
2022/11/26 00:28:34;;;;;;;32.63;19.85;;;7.30;99.90;;;;;;2056290;28;20081;-68
2022/11/26 00:29:35;;;;;;;33.20;19.85;;;7.30;99.90;;;;;;2063041;28;20026;-69
2022/11/26 00:30:36;;;;;;;31.33;19.58;;;7.30;99.90;;;;;;2057942;28;20610;-69
2022/11/26 00:31:37;;;;;;;29.63;19.02;;;7.30;99.90;;;;;;2062373;28;20023;-68
2022/11/26 00:32:40;;;;;;;31.60;19.27;;;7.30;99.90;;;;;;2064020;28;20079;-69
2022/11/26 00:33:41;;;;;;;30.13;18.73;;;7.30;99.90;;;;;;2056773;28;20694;-69
2022/11/26 00:34:44;;;;;;;25.80;17.58;;;7.30;99.90;;;;;;2055665;28;20134;-69
2022/11/26 00:35:45;;;;;;;29.25;17.92;;;7.30;99.90;;;;;;2056080;28;20065;-69
2022/11/26 00:36:47;;;;;;;28.85;17.77;;;7.30;99.90;;;;;;2055810;28;20027;-69
2022/11/26 00:37:55;;;;;;;30.15;17.92;;;7.30;99.90;;;;;;2055734;28;20055;-71
2022/11/26 00:39:02;;;;;;;30.23;17.88;;;7.30;99.90;;;;;;2055958;28;20110;-69
2022/11/26 00:40:05;;;;;;;26.20;16.75;;;7.30;99.90;;;;;;2055884;28;20035;-68
2022/11/26 00:41:20;;;;;;;28.30;16.77;;;7.30;99.90;;;;;;2056439;28;20089;-69
2022/11/26 00:42:22;;;;;;;32.05;17.85;;;7.30;99.90;;;;;;2055889;28;20035;-69
2022/11/26 00:43:23;;;;;;;30.75;17.75;;;7.30;99.90;;;;;;2055669;28;20457;-69
2022/11/26 00:44:26;;;;;;;30.30;17.50;;;7.30;99.90;;;;;;2055448;28;20024;-68
2022/11/26 00:45:30;;;;;;;26.33;17.20;;;7.30;99.90;;;;;;2055729;28;20050;-69
2022/11/26 00:46:31;;;;;;;28.92;17.02;;;7.30;99.90;;;;;;2055896;28;20549;-69
2022/11/26 00:47:33;;;;;;;26.38;16.58;;;7.30;99.90;;;;;;2055453;28;20019;-66
2022/11/26 00:48:34;;;;;;;26.33;16.67;;;7.30;99.90;;;;;;2047956;28;20426;-69
2022/11/26 00:49:36;;;;;;;28.60;17.25;;;7.30;99.90;;;;;;2048158;28;20482;-69
2022/11/26 00:50:41;;;;;;;24.88;15.77;;;7.30;99.90;;;;;;2055888;28;20156;-69
2022/11/26 00:51:42;;;;;;;26.90;16.33;;;7.30;99.90;;;;;;2049073;29;20039;-69
2022/11/26 00:52:45;;;;;;;31.27;16.98;;;7.30;99.90;;;;;;2048976;29;20031;-69
2022/11/26 00:53:47;;;;;;;25.17;15.82;;;7.30;99.90;;;;;;2040958;29;20035;-69
2022/11/26 00:54:49;;;;;;;24.48;16.25;;;7.30;99.90;;;;;;2048585;29;20078;-70
2022/11/26 00:55:50;;;;;;;25.63;16.13;;;7.30;99.90;;;;;;2050016;28;20042;-72
2022/11/26 00:57:21;;;;;;;25.63;16.67;;;7.40;99.90;;;;;;2056446;28;20022;-69
2022/11/26 00:58:35;;;;;;;25.35;16.20;;;7.30;99.90;;;;;;2051554;28;20023;-70
2022/11/26 00:59:42;;;;;;;27.67;16.38;;;7.30;99.90;;;;;;2040597;29;20027;-69
2022/11/26 01:00:47;;;;;;;25.52;14.55;;;7.40;99.90;;;;;;2042712;28;20058;-70
2022/11/26 01:01:50;;;;;;;26.20;16.77;;;7.30;99.90;;;;;;2056418;28;20074;-69
2022/11/26 01:02:57;;;;;;;25.90;16.10;;;7.40;99.90;;;;;;2049777;28;20121;-69
2022/11/26 01:03:59;;;;;;;27.95;16.17;;;7.40;99.90;;;;;;2056972;28;20417;-69
2022/11/26 01:05:07;;;;;;;27.15;15.48;;;7.30;99.90;;;;;;2041129;29;20059;-69
2022/11/26 01:06:30;;;;;;;26.52;16.30;;;7.30;99.90;;;;;;2042680;29;20043;-69
2022/11/26 01:07:31;;;;;;;24.48;15.70;;;7.30;99.90;;;;;;2049559;28;20090;-70
2022/11/26 01:08:34;;;;;;;27.00;16.33;;;7.30;99.90;;;;;;2049877;28;20110;-69
2022/11/26 01:09:35;;;;;;;22.98;15.32;;;7.30;99.90;;;;;;2049149;28;20030;-69
2022/11/26 01:10:36;;;;;;;27.92;16.38;;;7.30;99.90;;;;;;2048886;29;20046;-71
2022/11/26 01:11:37;;;;;;;28.17;16.15;;;7.30;99.90;;;;;;2048980;29;20030;-68
2022/11/26 01:12:40;;;;;;;24.20;15.25;;;7.30;99.90;;;;;;2048152;28;20029;-68
2022/11/26 01:13:47;;;;;;;23.98;14.75;;;7.40;99.90;;;;;;2040843;29;20039;-68
2022/11/26 01:14:49;;;;;;;24.42;15.63;;;7.30;99.90;;;;;;2048642;28;20673;-68
2022/11/26 01:15:49;;;;;;;29.50;16.92;;;7.40;99.90;;;;;;2048063;28;20035;-68
2022/11/26 01:16:54;;;;;;;26.45;16.20;;;7.40;99.90;;;;;;2047640;29;20035;-69
2022/11/26 01:17:55;;;;;;;27.95;16.80;;;7.40;99.90;;;;;;2048201;28;20406;-69
2022/11/26 01:18:58;;;;;;;32.42;17.08;;;7.40;99.90;;;;;;2048562;28;20058;-68
2022/11/26 01:19:59;;;;;;;25.83;15.88;;;7.40;99.90;;;;;;2055594;28;20030;-68
2022/11/26 01:21:00;;;;;;;25.98;15.45;;;7.40;99.90;;;;;;2055543;28;20472;-68
2022/11/26 01:22:05;;;;;;;22.95;15.25;;;7.40;99.90;;;;;;2053539;28;20119;-68
2022/11/26 01:23:10;;;;;;;24.23;15.50;;;7.40;99.90;;;;;;2056313;28;20034;-68
2022/11/26 01:24:11;;;;;;;25.58;16.48;;;7.40;99.90;;;;;;2055923;28;20041;-68
2022/11/26 01:25:15;;;;;;;28.02;16.05;;;7.40;99.90;;;;;;2056308;28;20031;-68
2022/11/26 01:26:22;;;;;;;26.52;16.63;;;7.40;99.90;;;;;;2055593;28;20058;-68
2022/11/26 01:27:23;;;;;;;27.42;17.02;;;7.40;99.90;;;;;;2048051;28;20134;-68
2022/11/26 01:28:24;;;;;;;27.50;16.42;;;7.40;99.90;;;;;;2055163;28;20409;-68
2022/11/26 01:29:25;;;;;;;25.10;16.00;;;7.40;99.90;;;;;;2058736;28;20019;-68
2022/11/26 01:30:30;;;;;;;25.58;16.77;;;7.40;99.90;;;;;;2056208;28;20050;-68
2022/11/26 01:31:31;;;;;;;26.63;15.93;;;7.40;99.90;;;;;;2055527;28;20509;-69
2022/11/26 01:32:32;;;;;;;23.67;15.57;;;7.40;99.90;;;;;;2050432;29;20023;-68
2022/11/26 01:33:36;;;;;;;23.98;15.27;;;7.40;99.90;;;;;;2051510;28;20031;-69
2022/11/26 01:34:37;;;;;;;30.17;17.15;;;7.30;99.90;;;;;;2051944;28;20096;-69
2022/11/26 01:35:38;;;;;;;26.52;16.58;;;7.40;99.90;;;;;;2054277;28;20087;-69
2022/11/26 01:36:43;;;;;;;27.20;15.70;;;7.40;99.90;;;;;;2060164;28;20118;-69
2022/11/26 01:37:44;;;;;;;23.90;15.10;;;7.40;99.90;;;;;;2058604;28;20393;-70
2022/11/26 01:38:45;;;;;;;21.80;13.93;;;7.40;99.90;;;;;;2057063;28;20470;-68
2022/11/26 01:39:46;;;;;;;21.75;14.13;;;7.40;99.90;;;;;;2057849;28;20038;-68
2022/11/26 01:41:07;;;;;;;20.05;13.80;;;7.40;99.90;;;;;;2056213;28;20138;-69
2022/11/26 01:42:39;;;;;;;23.73;14.93;;;7.40;99.90;;;;;;2056025;28;20089;-69
2022/11/26 01:43:41;;;;;;;22.55;14.73;;;7.40;99.90;;;;;;2055861;28;20043;-69
2022/11/26 01:44:42;;;;;;;21.27;14.32;;;7.40;99.90;;;;;;2062759;28;20045;-68
2022/11/26 01:45:43;;;;;;;22.30;14.05;;;7.40;99.90;;;;;;2063351;28;20038;-68
2022/11/26 01:46:44;;;;;;;21.15;14.18;;;7.40;99.90;;;;;;2055582;28;20098;-67
2022/11/26 01:47:47;;;;;;;20.98;13.15;;;7.40;99.90;;;;;;2055400;28;20027;-68
2022/11/26 01:48:49;;;;;;;21.60;13.57;;;7.40;99.90;;;;;;2055933;28;20042;-69
2022/11/26 01:50:38;;;;;;;27.27;15.88;;;7.40;99.90;;;;;;2055810;28;20755;-69
2022/11/26 01:51:38;;;;;;;25.42;15.80;;;7.40;99.90;;;;;;2050622;28;20421;-69
2022/11/26 01:52:39;;;;;;;23.88;15.38;;;7.40;99.90;;;;;;2055906;28;20098;-70
2022/11/26 01:53:51;;;;;;;22.95;14.85;;;7.30;99.90;;;;;;2055724;28;20031;-69
2022/11/26 01:54:53;;;;;;;25.88;16.15;;;7.30;99.90;;;;;;2055539;28;20125;-69
2022/11/26 01:55:58;;;;;;;26.58;15.43;;;7.30;99.90;;;;;;2055808;28;20069;-70
2022/11/26 01:57:15;;;;;;;22.40;14.70;;;7.30;99.90;;;;;;2055127;28;20027;-69
2022/11/26 01:58:25;;;;;;;21.85;13.82;;;7.30;99.90;;;;;;2048378;28;20590;-69
2022/11/26 01:59:31;;;;;;;22.08;13.45;;;7.20;99.90;;;;;;2055265;28;20054;-69
2022/11/26 02:00:32;;;;;;;22.75;14.00;;;7.30;99.90;;;;;;2055796;28;20014;-69
2022/11/26 02:01:33;;;;;;;26.48;15.35;;;7.20;99.90;;;;;;2055612;28;20790;-70
2022/11/26 02:02:34;;;;;;;24.98;15.80;;;7.20;99.90;;;;;;2055744;28;20098;-70
2022/11/26 02:04:10;;;;;;;28.88;17.25;;;7.20;99.90;;;;;;2055688;28;20122;-69
2022/11/26 02:05:20;;;;;;;27.42;15.95;;;7.20;99.90;;;;;;2055566;28;20030;-69
2022/11/26 02:06:26;;;;;;;30.75;18.05;;;7.20;99.90;;;;;;2055481;28;20023;-69
2022/11/26 02:07:27;;;;;;;29.92;17.33;;;7.30;99.90;;;;;;2055145;28;20820;-68
2022/11/26 02:08:31;;;;;;;31.08;17.80;;;7.30;99.90;;;;;;2054751;28;20031;-69
2022/11/26 02:09:32;;;;;;;27.20;16.48;;;7.30;99.90;;;;;;2054800;28;20030;-68
2022/11/26 02:10:33;;;;;;;29.88;16.70;;;7.30;99.90;;;;;;2055417;28;20039;-69
2022/11/26 02:11:40;;;;;;;31.85;17.38;;;7.30;99.90;;;;;;2055449;28;20019;-70
2022/11/26 02:12:44;;;;;;;28.08;16.92;;;7.30;99.90;;;;;;2055082;28;20023;-68
2022/11/26 02:13:47;;;;;;;31.40;17.23;;;7.30;99.90;;;;;;2054980;28;20023;-68
2022/11/26 02:14:48;;;;;;;31.08;17.52;;;7.30;99.90;;;;;;2054776;28;20098;-68
2022/11/26 02:16:13;;;;;;;31.85;17.63;;;7.30;99.90;;;;;;2055030;28;20035;-68
2022/11/26 02:17:25;;;;;;;32.58;18.00;;;7.30;99.90;;;;;;2055453;28;20023;-68
2022/11/26 02:18:32;;;;;;;32.67;16.73;;;7.30;99.90;;;;;;2055187;28;20019;-69
2022/11/26 02:19:48;;;;;;;29.48;17.63;;;7.30;99.90;;;;;;2055635;28;20077;-68
2022/11/26 02:20:55;;;;;;;28.50;16.48;;;7.30;99.90;;;;;;2047741;29;20050;-69
2022/11/26 02:22:08;;;;;;;26.85;16.80;;;7.30;99.90;;;;;;2052147;28;20043;-69
2022/11/26 02:23:33;;;;;;;32.05;18.02;;;7.30;99.90;;;;;;2055689;28;20118;-69
2022/11/26 02:24:48;;;;;;;31.05;17.73;;;7.30;99.90;;;;;;2055369;28;20077;-69
2022/11/26 02:25:52;;;;;;;32.42;17.45;;;7.30;99.90;;;;;;2055401;28;20027;-68
2022/11/26 02:27:11;;;;;;;32.63;17.92;;;7.30;99.90;;;;;;2054940;28;20039;-69
2022/11/26 02:28:49;;;;;;;29.55;17.55;;;7.30;99.90;;;;;;2054867;28;20610;-69
2022/11/26 02:30:12;;;;;;;34.58;18.27;;;7.30;99.90;;;;;;2055757;28;20050;-69
2022/11/26 02:31:34;;;;;;;33.20;17.17;;;7.30;99.90;;;;;;2055612;28;20099;-68
2022/11/26 02:32:49;;;;;;;28.98;17.00;;;7.30;99.90;;;;;;2055657;28;20094;-68
2022/11/26 02:34:16;;;;;;;35.22;19.02;;;7.30;99.90;;;;;;2055772;28;20109;-68
2022/11/26 02:35:36;;;;;;;33.05;18.50;;;7.30;99.90;;;;;;2062471;28;20113;-69
2022/11/26 02:36:52;;;;;;;28.77;17.13;;;7.30;99.90;;;;;;2061523;28;20098;-68
2022/11/26 02:37:58;;;;;;;27.73;16.55;;;7.30;99.90;;;;;;2055472;28;20090;-69
2022/11/26 02:39:11;;;;;;;33.10;19.08;;;7.30;99.90;;;;;;2056147;28;20092;-68
2022/11/26 02:40:12;;;;;;;34.28;20.10;;;7.30;99.90;;;;;;2055569;28;20122;-68
2022/11/26 02:41:12;;;;;;;32.33;18.13;;;7.30;99.90;;;;;;2055506;28;20033;-69
2022/11/26 02:42:29;;;;;;;38.17;19.52;;;7.30;99.90;;;;;;2055319;28;20038;-68
2022/11/26 02:43:32;;;;;;;38.33;19.48;;;7.30;99.90;;;;;;2055235;28;20047;-68
2022/11/26 02:44:43;;;;;;;37.28;20.10;;;7.30;99.90;;;;;;2054348;28;20023;-67
2022/11/26 02:45:51;;;;;;;31.45;18.70;;;7.30;99.90;;;;;;2054830;28;20035;-68
2022/11/26 02:47:05;;;;;;;35.17;19.52;;;7.30;99.90;;;;;;2054667;28;20512;-69
2022/11/26 02:48:10;;;;;;;35.47;19.38;;;7.30;99.90;;;;;;2054301;28;20030;-67
2022/11/26 02:49:16;;;;;;;31.65;18.80;;;7.30;99.90;;;;;;2055603;28;20023;-68
2022/11/26 02:50:35;;;;;;;31.05;19.23;;;7.30;99.90;;;;;;2055155;28;20477;-68
2022/11/26 02:51:37;;;;;;;30.92;19.00;;;7.30;99.90;;;;;;2055167;28;20484;-68
2022/11/26 02:52:40;;;;;;;34.20;19.60;;;7.30;99.90;;;;;;2055150;28;20806;-69
2022/11/26 02:53:44;;;;;;;38.05;20.13;;;7.30;99.90;;;;;;2055324;28;20095;-69
2022/11/26 02:54:47;;;;;;;33.63;19.83;;;7.30;99.90;;;;;;2054329;28;20524;-69
2022/11/26 02:55:53;;;;;;;38.35;20.58;;;7.30;99.90;;;;;;2054822;28;20031;-68
2022/11/26 02:56:54;;;;;;;37.55;19.98;;;7.30;99.90;;;;;;2054614;28;20030;-69
2022/11/26 02:57:56;;;;;;;32.17;18.63;;;7.30;99.90;;;;;;2054169;28;20041;-69
2022/11/26 02:58:58;;;;;;;30.90;18.35;;;7.30;99.90;;;;;;2046690;28;20062;-68
2022/11/26 02:59:59;;;;;;;34.95;19.30;;;7.30;99.90;;;;;;2054805;28;20035;-67
2022/11/26 03:01:04;;;;;;;37.15;19.00;;;7.30;99.90;;;;;;2055325;28;20038;-67
2022/11/26 03:02:11;;;;;;;35.30;19.42;;;7.30;99.90;;;;;;2055234;28;20051;-67
2022/11/26 03:03:24;;;;;;;31.00;18.75;;;7.30;99.90;;;;;;2055306;28;20031;-67
2022/11/26 03:04:34;;;;;;;37.13;19.15;;;7.30;99.90;;;;;;2055019;28;20147;-67
2022/11/26 03:05:38;;;;;;;35.10;19.70;;;7.30;99.90;;;;;;2054798;28;20446;-68
2022/11/26 03:06:39;;;;;;;34.38;19.52;;;7.30;99.90;;;;;;2047157;28;20031;-68
2022/11/26 03:07:41;;;;;;;31.98;18.67;;;7.30;99.90;;;;;;2054189;28;20102;-67
2022/11/26 03:08:44;;;;;;;35.58;19.27;;;7.30;99.90;;;;;;2055328;28;20077;-67
2022/11/26 03:09:57;;;;;;;34.10;19.80;;;7.30;99.90;;;;;;2054422;28;20035;-67
2022/11/26 03:10:58;;;;;;;36.00;20.02;;;7.30;99.90;;;;;;2047544;28;20041;-67
2022/11/26 03:11:59;;;;;;;35.00;19.80;;;7.30;99.90;;;;;;2054506;28;20031;-67
2022/11/26 03:12:59;;;;;;;33.17;18.25;;;7.30;99.90;;;;;;2055417;28;20117;-69
2022/11/26 03:14:00;;;;;;;35.42;19.17;;;7.30;99.90;;;;;;2054723;28;20031;-69
2022/11/26 03:15:01;;;;;;;31.98;19.17;;;7.30;99.90;;;;;;2055018;28;20061;-70
2022/11/26 03:16:03;;;;;;;33.65;18.85;;;7.30;99.90;;;;;;2054976;28;20663;-69
2022/11/26 03:17:04;;;;;;;31.80;18.80;;;7.30;99.90;;;;;;2054536;28;20043;-69
2022/11/26 03:18:04;;;;;;;32.90;18.85;;;7.30;99.90;;;;;;2054093;28;20043;-70
2022/11/26 03:19:05;;;;;;;31.60;19.00;;;7.30;99.90;;;;;;2062638;28;20026;-70
2022/11/26 03:20:06;;;;;;;30.13;18.67;;;7.30;99.90;;;;;;2055231;28;20031;-70
2022/11/26 03:21:08;;;;;;;33.05;19.10;;;7.30;99.90;;;;;;2055163;28;20027;-69
2022/11/26 03:22:09;;;;;;;34.38;19.60;;;7.30;99.90;;;;;;2058821;28;20073;-70
2022/11/26 03:23:09;;;;;;;35.85;19.33;;;7.30;99.90;;;;;;2062515;28;20496;-69
2022/11/26 03:24:10;;;;;;;32.00;19.70;;;7.30;99.90;;;;;;2054086;28;20045;-70
2022/11/26 03:25:11;;;;;;;33.05;19.40;;;7.30;99.90;;;;;;2046550;29;20099;-70
2022/11/26 03:26:12;;;;;;;32.78;19.40;;;7.30;99.90;;;;;;2054659;28;20034;-70
2022/11/26 03:27:12;;;;;;;30.90;17.90;;;7.30;99.90;;;;;;2055107;28;20023;-69
2022/11/26 03:28:13;;;;;;;33.83;18.55;;;7.30;99.90;;;;;;2061979;28;20175;-70
2022/11/26 03:29:14;;;;;;;33.63;18.48;;;7.30;99.90;;;;;;2062558;28;20480;-68
2022/11/26 03:30:14;;;;;;;27.88;17.08;;;7.30;99.90;;;;;;2055200;28;20091;-68
2022/11/26 03:31:15;;;;;;;30.80;17.98;;;7.20;99.90;;;;;;2055076;28;20139;-68
2022/11/26 03:32:16;;;;;;;29.50;17.77;;;7.30;99.90;;;;;;2055139;28;20590;-68
2022/11/26 03:33:17;;;;;;;34.88;18.27;;;7.20;99.90;;;;;;2055150;28;20027;-68
2022/11/26 03:34:18;;;;;;;33.22;18.02;;;7.20;99.90;;;;;;2054901;28;20023;-70
2022/11/26 03:35:19;;;;;;;30.33;17.48;;;7.20;99.90;;;;;;2055378;28;20033;-67
2022/11/26 03:36:20;;;;;;;31.42;17.67;;;7.20;99.90;;;;;;2054962;28;20031;-70
2022/11/26 03:37:20;;;;;;;30.75;17.52;;;7.20;99.90;;;;;;2055158;28;20093;-68
2022/11/26 03:38:21;;;;;;;30.95;17.85;;;7.20;99.90;;;;;;2054388;28;20027;-68
2022/11/26 03:39:22;;;;;;;29.38;17.20;;;7.20;99.90;;;;;;2055120;28;20434;-68
2022/11/26 03:40:22;;;;;;;28.85;17.17;;;7.30;99.90;;;;;;2055164;28;20034;-68
2022/11/26 03:41:23;;;;;;;27.15;16.65;;;7.30;99.90;;;;;;2062394;28;20038;-68
2022/11/26 03:42:24;;;;;;;28.85;16.67;;;7.30;99.90;;;;;;2062386;28;20485;-69
2022/11/26 03:43:25;;;;;;;30.67;17.75;;;7.30;99.90;;;;;;2055096;28;20564;-69
2022/11/26 03:44:25;;;;;;;33.60;18.25;;;7.30;99.90;;;;;;2061870;28;20026;-68
2022/11/26 03:45:26;;;;;;;31.08;17.85;;;7.30;99.90;;;;;;2062415;28;20477;-68
2022/11/26 03:46:27;;;;;;;31.13;17.77;;;7.30;99.90;;;;;;2055079;28;20023;-69
2022/11/26 03:47:27;;;;;;;32.88;18.15;;;7.20;99.90;;;;;;2054421;28;20023;-68
2022/11/26 03:48:28;;;;;;;33.85;18.50;;;7.20;99.90;;;;;;2054892;28;20433;-68
2022/11/26 03:49:29;;;;;;;32.53;17.67;;;7.20;99.90;;;;;;2055138;28;20053;-68
2022/11/26 03:50:29;;;;;;;33.63;18.27;;;7.20;99.90;;;;;;2055088;28;20418;-68
2022/11/26 03:51:30;;;;;;;30.13;18.75;;;7.20;99.90;;;;;;2054913;28;20504;-68
2022/11/26 03:52:31;;;;;;;35.25;19.13;;;7.20;99.90;;;;;;2054994;28;20605;-68
2022/11/26 03:53:31;;;;;;;36.70;19.42;;;7.20;99.90;;;;;;2054977;28;20054;-69
2022/11/26 03:54:32;;;;;;;31.40;19.10;;;7.20;99.90;;;;;;2054895;28;20038;-69
2022/11/26 03:55:33;;;;;;;35.17;19.70;;;7.20;99.90;;;;;;2054235;28;20031;-69
2022/11/26 03:56:33;;;;;;;37.50;20.33;;;7.20;99.90;;;;;;2054640;28;20035;-68
2022/11/26 03:57:34;;;;;;;33.30;19.95;;;7.10;99.90;;;;;;2054435;28;20101;-69
2022/11/26 03:58:35;;;;;;;35.80;20.92;;;7.20;99.90;;;;;;2055003;28;20497;-69
2022/11/26 03:59:36;;;;;;;34.65;20.05;;;7.10;99.90;;;;;;2054377;28;20546;-69
2022/11/26 04:00:37;;;;;;;35.08;20.02;;;7.10;99.90;;;;;;2054617;28;20027;-68
2022/11/26 04:01:37;;;;;;;32.65;19.48;;;7.20;99.90;;;;;;2055305;28;20105;-68
2022/11/26 04:02:38;;;;;;;33.47;20.15;;;7.10;99.90;;;;;;2055228;28;20026;-69
2022/11/26 04:03:40;;;;;;;35.03;19.40;;;7.10;99.90;;;;;;2055119;28;20034;-69
2022/11/26 04:04:40;;;;;;;34.20;19.30;;;7.10;99.90;;;;;;2054193;28;20046;-69
2022/11/26 04:05:41;;;;;;;35.90;21.10;;;7.10;99.90;;;;;;2054317;28;20067;-70
2022/11/26 04:06:42;;;;;;;36.08;20.65;;;7.10;99.90;;;;;;2055170;28;20037;-70
2022/11/26 04:07:42;;;;;;;32.38;19.42;;;7.10;99.90;;;;;;2054645;28;20057;-70
2022/11/26 04:08:43;;;;;;;36.38;21.42;;;7.10;99.90;;;;;;2054903;28;20033;-70
2022/11/26 04:09:44;;;;;;;32.78;19.33;;;7.10;99.90;;;;;;2054303;28;20035;-68
2022/11/26 04:10:44;;;;;;;31.77;19.10;;;7.10;99.90;;;;;;2046222;28;20035;-68
2022/11/26 04:11:45;;;;;;;33.17;19.05;;;7.10;99.90;;;;;;2054195;28;20742;-68
2022/11/26 04:12:45;;;;;;;34.47;19.67;;;7.10;99.90;;;;;;2054788;28;20081;-68
2022/11/26 04:13:46;;;;;;;35.75;19.98;;;7.10;99.90;;;;;;2055596;28;20041;-68
2022/11/26 04:14:47;;;;;;;36.00;19.88;;;7.10;99.90;;;;;;2062481;28;20117;-68
2022/11/26 04:15:48;;;;;;;31.92;19.00;;;7.10;99.90;;;;;;2062659;28;20019;-68
2022/11/26 04:16:48;;;;;;;32.10;20.08;;;7.10;99.90;;;;;;2055894;28;20583;-70
2022/11/26 04:17:49;;;;;;;32.03;19.80;;;7.10;99.90;;;;;;2056564;28;20035;-69
2022/11/26 04:18:50;;;;;;;30.70;19.30;;;7.10;99.90;;;;;;2054547;28;20114;-69
2022/11/26 04:19:51;;;;;;;34.53;19.50;;;7.10;99.90;;;;;;2054563;28;20082;-68
2022/11/26 04:20:52;;;;;;;33.88;19.90;;;7.10;99.90;;;;;;2054541;28;20023;-69
2022/11/26 04:21:52;;;;;;;35.97;20.33;;;7.10;99.90;;;;;;2055034;28;20030;-70
2022/11/26 04:22:53;;;;;;;37.90;20.75;;;7.10;99.90;;;;;;2056428;28;20070;-69
2022/11/26 04:23:54;;;;;;;31.90;19.63;;;7.10;99.90;;;;;;2056513;28;20038;-70
2022/11/26 04:24:54;;;;;;;34.22;20.10;;;7.10;99.90;;;;;;2055576;28;20027;-70
2022/11/26 04:25:55;;;;;;;33.40;20.27;;;7.10;99.90;;;;;;2055986;28;20129;-69
2022/11/26 04:26:56;;;;;;;29.25;19.48;;;7.20;99.90;;;;;;2055705;28;20482;-69
2022/11/26 04:27:56;;;;;;;33.38;19.55;;;7.20;99.90;;;;;;2055489;28;20390;-67
2022/11/26 04:28:57;;;;;;;29.48;18.63;;;7.10;99.90;;;;;;2056583;28;20080;-70
2022/11/26 04:29:58;;;;;;;27.75;18.58;;;7.20;99.90;;;;;;2055688;28;20409;-68
2022/11/26 04:30:59;;;;;;;26.67;17.63;;;7.20;99.90;;;;;;2055757;28;20042;-68
2022/11/26 04:31:59;;;;;;;28.20;18.00;;;7.20;99.90;;;;;;2056491;28;20027;-68
2022/11/26 04:33:00;;;;;;;26.65;18.33;;;7.20;99.90;;;;;;2055683;28;20424;-69
2022/11/26 04:34:01;;;;;;;32.45;19.77;;;7.20;99.90;;;;;;2047749;28;20039;-68
2022/11/26 04:35:02;;;;;;;29.60;18.85;;;7.20;99.90;;;;;;2047917;28;20116;-68
2022/11/26 04:36:03;;;;;;;26.80;17.42;;;7.20;99.90;;;;;;2047886;28;20031;-68
2022/11/26 04:37:03;;;;;;;25.55;17.85;;;7.20;99.90;;;;;;2056732;28;20087;-69
2022/11/26 04:38:04;;;;;;;25.45;16.83;;;7.20;99.90;;;;;;2055314;28;20026;-69
2022/11/26 04:39:05;;;;;;;24.42;16.70;;;7.20;99.90;;;;;;2056260;28;20097;-68
2022/11/26 04:40:06;;;;;;;30.83;18.75;;;7.20;99.90;;;;;;2056872;28;20381;-69
2022/11/26 04:41:07;;;;;;;31.30;18.90;;;7.20;99.90;;;;;;2057332;28;20027;-68
2022/11/26 04:42:08;;;;;;;31.90;18.98;;;7.20;99.90;;;;;;2057366;28;20105;-69
2022/11/26 04:43:08;;;;;;;26.42;18.65;;;7.20;99.90;;;;;;2056867;28;20026;-68
2022/11/26 04:44:09;;;;;;;28.73;18.17;;;7.20;99.90;;;;;;2056103;28;20034;-68
2022/11/26 04:45:10;;;;;;;28.98;18.75;;;7.20;99.90;;;;;;2056489;28;20069;-68
2022/11/26 04:46:11;;;;;;;36.13;20.55;;;7.20;99.90;;;;;;2056433;28;20114;-68
2022/11/26 04:47:11;;;;;;;29.92;19.33;;;7.30;99.90;;;;;;2056315;28;20043;-68
2022/11/26 04:48:12;;;;;;;38.97;21.20;;;7.20;99.90;;;;;;2055202;28;20031;-68
2022/11/26 04:49:13;;;;;;;37.72;21.52;;;7.20;99.90;;;;;;2047915;29;20524;-69
2022/11/26 04:50:14;;;;;;;32.70;20.42;;;7.30;99.90;;;;;;2055550;28;20112;-70
2022/11/26 04:51:15;;;;;;;34.63;20.35;;;7.30;99.90;;;;;;2056120;28;20481;-69
2022/11/26 04:52:16;;;;;;;33.10;20.17;;;7.30;99.90;;;;;;2056270;28;20051;-68
2022/11/26 04:53:20;;;;;;;33.95;21.25;;;7.20;99.90;;;;;;2056315;28;20023;-68
2022/11/26 04:54:21;;;;;;;30.20;19.35;;;7.30;99.90;;;;;;2055981;28;20509;-69
2022/11/26 04:55:22;;;;;;;31.15;20.25;;;7.20;99.90;;;;;;2055987;28;20030;-68
2022/11/26 04:56:23;;;;;;;30.65;19.58;;;7.20;99.90;;;;;;2055350;28;20026;-69
2022/11/26 04:57:23;;;;;;;39.42;21.13;;;7.20;99.90;;;;;;2055609;28;20038;-68
2022/11/26 04:58:24;;;;;;;39.55;22.05;;;7.30;99.90;;;;;;2054980;28;20026;-69
2022/11/26 04:59:25;;;;;;;37.13;21.90;;;7.20;99.90;;;;;;2055580;28;20050;-69
2022/11/26 05:00:26;;;;;;;39.65;22.50;;;7.20;99.90;;;;;;2056224;28;20073;-69
2022/11/26 05:01:26;;;;;;;39.55;21.58;;;7.20;99.90;;;;;;2055415;28;20142;-69
2022/11/26 05:02:27;;;;;;;43.70;23.92;;;7.20;99.90;;;;;;2055508;28;20480;-69
2022/11/26 05:03:28;;;;;;;38.50;21.92;;;7.20;99.90;;;;;;2056012;28;20081;-69
2022/11/26 05:04:28;;;;;;;43.35;23.10;;;7.20;99.90;;;;;;2055746;28;20110;-69
2022/11/26 05:05:29;;;;;;;39.03;22.45;;;7.20;99.90;;;;;;2056168;28;20030;-69
2022/11/26 05:06:30;;;;;;;40.95;23.25;;;7.20;99.90;;;;;;2055688;28;20023;-68
2022/11/26 05:07:30;;;;;;;35.30;21.65;;;7.20;99.90;;;;;;2055444;28;20509;-69
2022/11/26 05:08:31;;;;;;;35.03;21.58;;;7.20;99.90;;;;;;2056082;28;20022;-68
2022/11/26 05:09:32;;;;;;;36.33;21.98;;;7.20;99.90;;;;;;2055961;28;20050;-68
2022/11/26 05:10:33;;;;;;;37.25;22.55;;;7.30;99.90;;;;;;2056095;28;20552;-68
2022/11/26 05:11:34;;;;;;;36.78;22.50;;;7.30;99.90;;;;;;2055429;28;20478;-68
2022/11/26 05:12:35;;;;;;;35.30;21.33;;;7.30;99.90;;;;;;2057431;28;20090;-68
2022/11/26 05:13:36;;;;;;;38.42;21.95;;;7.30;99.90;;;;;;2057619;28;20023;-68
2022/11/26 05:14:36;;;;;;;38.65;22.73;;;7.30;99.90;;;;;;2063091;28;20469;-68
2022/11/26 05:15:37;;;;;;;41.63;22.38;;;7.30;99.90;;;;;;2056938;28;20045;-68
2022/11/26 05:16:38;;;;;;;37.22;21.65;;;7.30;99.90;;;;;;2055878;28;20030;-68
2022/11/26 05:17:38;;;;;;;38.85;22.80;;;7.30;99.90;;;;;;2055355;28;20026;-68
2022/11/26 05:18:39;;;;;;;38.65;22.60;;;7.30;99.90;;;;;;2055998;28;20494;-68
2022/11/26 05:19:40;;;;;;;36.75;21.30;;;7.30;99.90;;;;;;2055965;28;20062;-68
2022/11/26 05:20:41;;;;;;;41.70;23.70;;;7.30;99.90;;;;;;2055989;28;20029;-68
2022/11/26 05:21:41;;;;;;;42.22;23.00;;;7.30;99.90;;;;;;2055860;28;20023;-69
2022/11/26 05:22:42;;;;;;;40.38;23.00;;;7.30;99.90;;;;;;2055345;28;20504;-68
2022/11/26 05:23:43;;;;;;;40.20;22.65;;;7.30;99.90;;;;;;2055312;28;20038;-68
2022/11/26 05:24:43;;;;;;;42.03;22.83;;;7.30;99.90;;;;;;2055640;28;20178;-69
2022/11/26 05:25:44;;;;;;;36.03;22.25;;;7.30;99.90;;;;;;2056032;28;20039;-68
2022/11/26 05:26:45;;;;;;;40.80;23.38;;;7.40;99.90;;;;;;2056331;28;20022;-68
2022/11/26 05:27:45;;;;;;;37.72;22.20;;;7.40;99.90;;;;;;2055654;28;20030;-67